Salt, Spain
Current Conditions -  °F | °C
As of 7:30 PM on Thursday 29 Jan 2015 (Local Time) from LEGE Reporting Station
Clear Clear  
Wind Chill: 45°   Ceiling: Unl
Heat Index: 45°   Visibility: 6mi
Dew Point: 41°   Wind: 1mph
Humidity: 87%   Direction: 300°WNW
Pressure: 29.44"   Gusts: NA
Location:  41.97°N, 2.79°E
Report Text: LEGE 291830Z 30001KT CAVOK 07/05 Q0997
Loading
Personal Weather Stations






























Interactive Weather Map New forecast layout! Learn more

10-Day Weather Forecast

Advertisements
Track Severe Weather on mobile